My Lona — VJN3432 — position and weather

sailwx.info

Track history (hours):
 
Tides and Currents Weather Stations Pressure Air Temp Water Temp Dewpoint Dewpoint Depression Visibility Wind Speed Wind Dir Waves Ship Positions

My Lona

Last reported at 2016-Jun-23 16:32 UTC. Time now 2016-Jun-26 06:36 UTC.
Position N 39°01' W 009°51'.

Length 74 m; draft 3.8 m.

Type: Pleasure craft. MMSI: 503514000.

Date/timePositionNaut miles runAvg speedWind from/ knotsBaromVisibWave heightAir tempDewpointWater temp
2016-Jun-23 16:32N 39°01' W 009°51'1915.0
2016-Jun-23 15:15N 38°41' W 009°51'1114.7
2016-Jun-23 14:31N 38°31' W 009°48'1514.6
2016-Jun-23 13:30N 38°16' W 009°43'1414.4
2016-Jun-23 12:33N 38°03' W 009°40'1615.2
2016-Jun-23 11:32N 37°48' W 009°35'2215.1
2016-Jun-23 10:05N 37°27' W 009°28'21113.2
2016-Jun-22 18:08N 35°60' W 005°29'712.4
2016-Jun-22 17:33N 36°05' W 005°23'3 0.4
2016-Jun-22 08:24N 36°09' W 005°22'1 0.7
2016-Jun-22 07:27N 36°09' W 005°23'0 0.1
2016-Jun-22 06:18N 36°09' W 005°23'0 0.1
2016-Jun-22 05:30N 36°09' W 005°23'0 0.1
2016-Jun-22 04:33N 36°09' W 005°23'4 4.1
2016-Jun-22 03:33N 36°05' W 005°21'22313.7
2016-Jun-21 11:15N 37°18' W 000°57'1115.0
2016-Jun-21 10:33N 37°25' W 000°47'1515.0
2016-Jun-21 09:33N 37°35' W 000°33'1514.8
2016-Jun-21 08:32N 37°47' W 000°22'6115.4
2016-Jun-21 04:33N 38°23' E 000°40'1615.1
2016-Jun-21 03:30N 38°33' E 000°57'1514.9
2016-Jun-21 02:29N 38°42' E 001°12'1314.4
2016-Jun-21 01:32N 38°50' E 001°26'3 0.2
2016-Jun-20 08:31N 38°53' E 001°25'2 0.1
2016-Jun-19 19:16N 38°54' E 001°27'  
2016-Jun-17 13:32N 38°54' E 001°26'11 1.2
2016-Jun-17 04:30N 38°43' E 001°29'0 0.0
2016-Jun-17 03:30N 38°43' E 001°29'0 0.0
2016-Jun-17 02:30N 38°43' E 001°29'0 0.0
2016-Jun-17 01:24N 38°43' E 001°29'0 0.0
2016-Jun-16 16:08N 38°43' E 001°29'6 8.4
2016-Jun-16 15:21N 38°49' E 001°28'5 0.6
2016-Jun-16 07:24N 38°54' E 001°27'7 8.2
2016-Jun-16 06:32N 38°59' E 001°34'0 0.0
2016-Jun-16 05:33N 38°59' E 001°34'4 3.2
2016-Jun-16 04:17N 39°02' E 001°37'0 0.0
2016-Jun-16 03:23N 39°02' E 001°37'0 0.0
2016-Jun-16 02:05N 39°02' E 001°37'0 0.0
2016-Jun-16 01:23N 39°02' E 001°37'0 0.1
2016-Jun-16 00:29N 39°02' E 001°37'0 0.0
2016-Jun-15 23:29N 39°02' E 001°37'0 0.1
2016-Jun-15 22:17N 39°03' E 001°37'0 0.0
2016-Jun-15 19:23N 39°03' E 001°37'3 3.1
2016-Jun-15 18:33N 39°04' E 001°40'1111.3
2016-Jun-15 17:33N 39°11' E 001°50'1414.0
2016-Jun-15 16:33N 39°22' E 002°02'1714.2
2016-Jun-15 15:21N 39°35' E 002°17'1215.0
2016-Jun-15 14:33N 39°42' E 002°29'1414.5
2016-Jun-15 13:33N 39°51' E 002°44'6 1.3
2016-Jun-15 09:16N 39°53' E 002°51'6 0.2
2016-Jun-14 03:05N 39°57' E 002°56'815.1
2016-Jun-14 02:33N 39°56' E 002°46'1515.2
2016-Jun-14 01:34N 39°53' E 002°27'1615.5
2016-Jun-14 00:33N 39°50' E 002°07'1515.0
2016-Jun-13 23:33N 39°47' E 001°47'1515.1
2016-Jun-13 22:33N 39°44' E 001°28'8014.6
2016-Jun-13 17:05N 39°29' W 000°13'5 9.3
2016-Jun-13 16:33N 39°28' W 000°20'  
Track history (hours):
 
Tides and Currents Weather Stations Pressure Air Temp Water Temp Dewpoint Dewpoint Depression Visibility Wind Speed Wind Dir Waves Ship Positions

My Lona

Last reported at 2016-Jun-23 16:32 UTC. Time now 2016-Jun-26 06:36 UTC.
Position N 39°01' W 009°51'.

Length 74 m; draft 3.8 m.

Type: Pleasure craft. MMSI: 503514000.

Date/timePositionNaut miles runAvg speedWind from/ knotsBaromVisibWave heightAir tempDewpointWater temp
2016-Jun-23 16:32N 39°01' W 009°51'1915.0
2016-Jun-23 15:15N 38°41' W 009°51'1114.7
2016-Jun-23 14:31N 38°31' W 009°48'1514.6
2016-Jun-23 13:30N 38°16' W 009°43'1414.4
2016-Jun-23 12:33N 38°03' W 009°40'1615.2
2016-Jun-23 11:32N 37°48' W 009°35'2215.1
2016-Jun-23 10:05N 37°27' W 009°28'21113.2
2016-Jun-22 18:08N 35°60' W 005°29'712.4
2016-Jun-22 17:33N 36°05' W 005°23'3 0.4
2016-Jun-22 08:24N 36°09' W 005°22'1 0.7
2016-Jun-22 07:27N 36°09' W 005°23'0 0.1
2016-Jun-22 06:18N 36°09' W 005°23'0 0.1
2016-Jun-22 05:30N 36°09' W 005°23'0 0.1
2016-Jun-22 04:33N 36°09' W 005°23'4 4.1
2016-Jun-22 03:33N 36°05' W 005°21'22313.7
2016-Jun-21 11:15N 37°18' W 000°57'1115.0
2016-Jun-21 10:33N 37°25' W 000°47'1515.0
2016-Jun-21 09:33N 37°35' W 000°33'1514.8
2016-Jun-21 08:32N 37°47' W 000°22'6115.4
2016-Jun-21 04:33N 38°23' E 000°40'1615.1
2016-Jun-21 03:30N 38°33' E 000°57'1514.9
2016-Jun-21 02:29N 38°42' E 001°12'1314.4
2016-Jun-21 01:32N 38°50' E 001°26'3 0.2
2016-Jun-20 08:31N 38°53' E 001°25'2 0.1
2016-Jun-19 19:16N 38°54' E 001°27'  
2016-Jun-17 13:32N 38°54' E 001°26'11 1.2
2016-Jun-17 04:30N 38°43' E 001°29'0 0.0
2016-Jun-17 03:30N 38°43' E 001°29'0 0.0
2016-Jun-17 02:30N 38°43' E 001°29'0 0.0
2016-Jun-17 01:24N 38°43' E 001°29'0 0.0
2016-Jun-16 16:08N 38°43' E 001°29'6 8.4
2016-Jun-16 15:21N 38°49' E 001°28'5 0.6
2016-Jun-16 07:24N 38°54' E 001°27'7 8.2
2016-Jun-16 06:32N 38°59' E 001°34'0 0.0
2016-Jun-16 05:33N 38°59' E 001°34'4 3.2
2016-Jun-16 04:17N 39°02' E 001°37'0 0.0
2016-Jun-16 03:23N 39°02' E 001°37'0 0.0
2016-Jun-16 02:05N 39°02' E 001°37'0 0.0
2016-Jun-16 01:23N 39°02' E 001°37'0 0.1
2016-Jun-16 00:29N 39°02' E 001°37'0 0.0
2016-Jun-15 23:29N 39°02' E 001°37'0 0.1
2016-Jun-15 22:17N 39°03' E 001°37'0 0.0
2016-Jun-15 19:23N 39°03' E 001°37'3 3.1
2016-Jun-15 18:33N 39°04' E 001°40'1111.3
2016-Jun-15 17:33N 39°11' E 001°50'1414.0
2016-Jun-15 16:33N 39°22' E 002°02'1714.2
2016-Jun-15 15:21N 39°35' E 002°17'1215.0
2016-Jun-15 14:33N 39°42' E 002°29'1414.5
2016-Jun-15 13:33N 39°51' E 002°44'6 1.3
2016-Jun-15 09:16N 39°53' E 002°51'6 0.2
2016-Jun-14 03:05N 39°57' E 002°56'815.1
2016-Jun-14 02:33N 39°56' E 002°46'1515.2
2016-Jun-14 01:34N 39°53' E 002°27'1615.5
2016-Jun-14 00:33N 39°50' E 002°07'1515.0
2016-Jun-13 23:33N 39°47' E 001°47'1515.1
2016-Jun-13 22:33N 39°44' E 001°28'8014.6
2016-Jun-13 17:05N 39°29' W 000°13'5 9.3
2016-Jun-13 16:33N 39°28' W 000°20'  

Dump ship's entire track history